sensor_id;sensor_type;location;lat;lon;timestamp;temperature;humidity
39067;DHT22;24821;51.988;6.020;2023-02-08T00:01:14;0.40;99.90
39067;DHT22;24821;51.988;6.020;2023-02-08T00:03:40;0.30;99.90
39067;DHT22;24821;51.988;6.020;2023-02-08T00:06:06;0.30;99.90
39067;DHT22;24821;51.988;6.020;2023-02-08T00:08:33;0.30;99.90
39067;DHT22;24821;51.988;6.020;2023-02-08T00:10:58;0.30;99.90
39067;DHT22;24821;51.988;6.020;2023-02-08T00:13:24;0.20;99.90
39067;DHT22;24821;51.988;6.020;2023-02-08T00:15:52;0.20;99.90
39067;DHT22;24821;51.988;6.020;2023-02-08T00:18:18;0.20;99.90
39067;DHT22;24821;51.988;6.020;2023-02-08T00:20:44;0.20;99.90
39067;DHT22;24821;51.988;6.020;2023-02-08T00:23:11;0.20;99.90
39067;DHT22;24821;51.988;6.020;2023-02-08T00:25:37;0.20;99.90
39067;DHT22;24821;51.988;6.020;2023-02-08T00:28:03;0.10;99.90
39067;DHT22;24821;51.988;6.020;2023-02-08T00:30:29;0.20;99.90
39067;DHT22;24821;51.988;6.020;2023-02-08T00:32:55;0.10;99.90
39067;DHT22;24821;51.988;6.020;2023-02-08T00:35:20;0.10;99.90
39067;DHT22;24821;51.988;6.020;2023-02-08T00:37:46;0.10;99.90
39067;DHT22;24821;51.988;6.020;2023-02-08T00:40:12;0.00;99.90
39067;DHT22;24821;51.988;6.020;2023-02-08T00:42:37;0.00;99.90
39067;DHT22;24821;51.988;6.020;2023-02-08T00:45:03;0.00;99.90
39067;DHT22;24821;51.988;6.020;2023-02-08T00:47:29;0.00;99.90
39067;DHT22;24821;51.988;6.020;2023-02-08T00:49:55;0.10;99.90
39067;DHT22;24821;51.988;6.020;2023-02-08T00:52:20;0.00;99.90
39067;DHT22;24821;51.988;6.020;2023-02-08T00:54:46;0.00;99.90
39067;DHT22;24821;51.988;6.020;2023-02-08T00:57:12;0.10;99.90
39067;DHT22;24821;51.988;6.020;2023-02-08T00:59:38;0.00;99.90
39067;DHT22;24821;51.988;6.020;2023-02-08T01:02:04;0.00;99.90
39067;DHT22;24821;51.988;6.020;2023-02-08T01:04:29;0.00;99.90
39067;DHT22;24821;51.988;6.020;2023-02-08T01:06:55;0.00;99.90
39067;DHT22;24821;51.988;6.020;2023-02-08T01:09:20;0.00;99.90
39067;DHT22;24821;51.988;6.020;2023-02-08T01:11:46;0.00;99.90
39067;DHT22;24821;51.988;6.020;2023-02-08T01:14:12;0.00;99.90
39067;DHT22;24821;51.988;6.020;2023-02-08T01:16:37;0.00;99.90
39067;DHT22;24821;51.988;6.020;2023-02-08T01:19:04;-0.10;99.90
39067;DHT22;24821;51.988;6.020;2023-02-08T01:21:32;-0.10;99.90
39067;DHT22;24821;51.988;6.020;2023-02-08T01:23:59;-0.10;99.90
39067;DHT22;24821;51.988;6.020;2023-02-08T01:26:25;-0.10;99.90
39067;DHT22;24821;51.988;6.020;2023-02-08T01:28:51;-0.10;99.90
39067;DHT22;24821;51.988;6.020;2023-02-08T01:31:23;-0.10;99.90
39067;DHT22;24821;51.988;6.020;2023-02-08T01:33:49;-0.10;99.90
39067;DHT22;24821;51.988;6.020;2023-02-08T01:36:15;-0.10;99.90
39067;DHT22;24821;51.988;6.020;2023-02-08T01:38:42;-0.20;99.90
39067;DHT22;24821;51.988;6.020;2023-02-08T01:41:20;-0.10;99.90
39067;DHT22;24821;51.988;6.020;2023-02-08T01:45:10;-0.10;99.90
39067;DHT22;24821;51.988;6.020;2023-02-08T01:46:52;-0.20;99.90
39067;DHT22;24821;51.988;6.020;2023-02-08T01:49:26;-0.20;99.90
39067;DHT22;24821;51.988;6.020;2023-02-08T01:51:55;-0.30;99.90
39067;DHT22;24821;51.988;6.020;2023-02-08T01:54:25;-0.30;99.90
39067;DHT22;24821;51.988;6.020;2023-02-08T01:56:51;-0.40;99.90
39067;DHT22;24821;51.988;6.020;2023-02-08T01:59:23;-0.40;99.90
39067;DHT22;24821;51.988;6.020;2023-02-08T02:01:51;-0.40;99.90
39067;DHT22;24821;51.988;6.020;2023-02-08T02:04:18;-0.40;99.90
39067;DHT22;24821;51.988;6.020;2023-02-08T02:06:50;-0.40;99.90
39067;DHT22;24821;51.988;6.020;2023-02-08T02:09:32;-0.40;99.90
39067;DHT22;24821;51.988;6.020;2023-02-08T02:12:01;-0.40;99.90
39067;DHT22;24821;51.988;6.020;2023-02-08T02:14:27;-0.40;99.90
39067;DHT22;24821;51.988;6.020;2023-02-08T02:16:52;-0.40;99.90
39067;DHT22;24821;51.988;6.020;2023-02-08T02:33:16;-0.50;99.90
39067;DHT22;24821;51.988;6.020;2023-02-08T02:44:18;-0.50;99.90
39067;DHT22;24821;51.988;6.020;2023-02-08T02:46:56;-0.60;99.90
39067;DHT22;24821;51.988;6.020;2023-02-08T02:50:07;-0.60;99.90
39067;DHT22;24821;51.988;6.020;2023-02-08T02:52:45;-0.60;99.90
39067;DHT22;24821;51.988;6.020;2023-02-08T02:55:16;-0.60;99.90
39067;DHT22;24821;51.988;6.020;2023-02-08T02:57:46;-0.60;99.90
39067;DHT22;24821;51.988;6.020;2023-02-08T03:00:19;-0.60;99.90
39067;DHT22;24821;51.988;6.020;2023-02-08T03:02:46;-0.60;99.90
39067;DHT22;24821;51.988;6.020;2023-02-08T03:05:12;-0.60;99.90
39067;DHT22;24821;51.988;6.020;2023-02-08T03:20:45;-0.70;99.90
39067;DHT22;24821;51.988;6.020;2023-02-08T03:23:14;-0.70;99.90
39067;DHT22;24821;51.988;6.020;2023-02-08T03:25:59;-0.70;99.90
39067;DHT22;24821;51.988;6.020;2023-02-08T03:28:40;-0.70;99.90
39067;DHT22;24821;51.988;6.020;2023-02-08T03:33:50;-0.60;99.90
39067;DHT22;24821;51.988;6.020;2023-02-08T03:36:25;-0.60;99.90
39067;DHT22;24821;51.988;6.020;2023-02-08T03:38:53;-0.60;99.90
39067;DHT22;24821;51.988;6.020;2023-02-08T03:41:25;-0.60;99.90
39067;DHT22;24821;51.988;6.020;2023-02-08T03:44:05;-0.60;99.90
39067;DHT22;24821;51.988;6.020;2023-02-08T03:46:37;-0.60;99.90
39067;DHT22;24821;51.988;6.020;2023-02-08T03:49:11;-0.60;99.90
39067;DHT22;24821;51.988;6.020;2023-02-08T03:51:39;-0.70;99.90
39067;DHT22;24821;51.988;6.020;2023-02-08T03:54:07;-0.70;99.90
39067;DHT22;24821;51.988;6.020;2023-02-08T03:59:21;-0.70;99.90
39067;DHT22;24821;51.988;6.020;2023-02-08T04:02:01;-0.70;99.90
39067;DHT22;24821;51.988;6.020;2023-02-08T04:04:34;-0.80;99.90
39067;DHT22;24821;51.988;6.020;2023-02-08T04:07:01;-0.80;99.90
39067;DHT22;24821;51.988;6.020;2023-02-08T04:09:27;-0.80;99.90
39067;DHT22;24821;51.988;6.020;2023-02-08T04:11:52;-0.80;99.90
39067;DHT22;24821;51.988;6.020;2023-02-08T04:14:18;-0.90;99.90
39067;DHT22;24821;51.988;6.020;2023-02-08T04:16:43;-0.80;99.90
39067;DHT22;24821;51.988;6.020;2023-02-08T04:19:09;-0.80;99.90
39067;DHT22;24821;51.988;6.020;2023-02-08T04:21:35;-0.80;99.90
39067;DHT22;24821;51.988;6.020;2023-02-08T04:24:00;-0.80;99.90
39067;DHT22;24821;51.988;6.020;2023-02-08T04:26:26;-0.90;99.90
39067;DHT22;24821;51.988;6.020;2023-02-08T04:28:52;-0.80;99.90
39067;DHT22;24821;51.988;6.020;2023-02-08T04:31:17;-0.90;99.90
39067;DHT22;24821;51.988;6.020;2023-02-08T04:33:43;-0.90;99.90
39067;DHT22;24821;51.988;6.020;2023-02-08T04:36:08;-0.90;99.90
39067;DHT22;24821;51.988;6.020;2023-02-08T04:38:34;-0.90;99.90
39067;DHT22;24821;51.988;6.020;2023-02-08T04:41:00;-0.90;99.90
39067;DHT22;24821;51.988;6.020;2023-02-08T04:43:26;-0.90;99.90
39067;DHT22;24821;51.988;6.020;2023-02-08T04:45:51;-0.90;99.90
39067;DHT22;24821;51.988;6.020;2023-02-08T04:48:17;-0.80;99.90
39067;DHT22;24821;51.988;6.020;2023-02-08T04:50:43;-0.80;99.90
39067;DHT22;24821;51.988;6.020;2023-02-08T04:53:09;-0.90;99.90
39067;DHT22;24821;51.988;6.020;2023-02-08T04:55:34;-0.80;99.90
39067;DHT22;24821;51.988;6.020;2023-02-08T04:58:00;-0.80;99.90
39067;DHT22;24821;51.988;6.020;2023-02-08T05:00:26;-0.80;99.90
39067;DHT22;24821;51.988;6.020;2023-02-08T05:02:56;-0.80;99.90
39067;DHT22;24821;51.988;6.020;2023-02-08T05:05:23;-0.80;99.90
39067;DHT22;24821;51.988;6.020;2023-02-08T05:07:49;-0.70;99.90
39067;DHT22;24821;51.988;6.020;2023-02-08T05:10:15;-0.80;99.90
39067;DHT22;24821;51.988;6.020;2023-02-08T05:12:41;-0.70;99.90
39067;DHT22;24821;51.988;6.020;2023-02-08T05:15:07;-0.70;99.90
39067;DHT22;24821;51.988;6.020;2023-02-08T05:17:32;-0.70;99.90
39067;DHT22;24821;51.988;6.020;2023-02-08T05:19:58;-0.70;99.90
39067;DHT22;24821;51.988;6.020;2023-02-08T05:22:24;-0.70;99.90
39067;DHT22;24821;51.988;6.020;2023-02-08T05:24:49;-0.70;99.90
39067;DHT22;24821;51.988;6.020;2023-02-08T05:27:15;-0.70;99.90
39067;DHT22;24821;51.988;6.020;2023-02-08T05:29:40;-0.70;99.90
39067;DHT22;24821;51.988;6.020;2023-02-08T05:32:07;-0.70;99.90
39067;DHT22;24821;51.988;6.020;2023-02-08T05:34:33;-0.70;99.90
39067;DHT22;24821;51.988;6.020;2023-02-08T05:36:58;-0.70;99.90
39067;DHT22;24821;51.988;6.020;2023-02-08T05:39:24;-0.70;99.90
39067;DHT22;24821;51.988;6.020;2023-02-08T05:41:49;-0.70;99.90
39067;DHT22;24821;51.988;6.020;2023-02-08T05:44:15;-0.70;99.90
39067;DHT22;24821;51.988;6.020;2023-02-08T05:46:40;-0.70;99.90
39067;DHT22;24821;51.988;6.020;2023-02-08T05:49:06;-0.70;99.90
39067;DHT22;24821;51.988;6.020;2023-02-08T05:51:32;-0.80;99.90
39067;DHT22;24821;51.988;6.020;2023-02-08T05:53:58;-0.80;99.90
39067;DHT22;24821;51.988;6.020;2023-02-08T05:56:23;-0.80;99.90
39067;DHT22;24821;51.988;6.020;2023-02-08T05:58:49;-0.80;99.90
39067;DHT22;24821;51.988;6.020;2023-02-08T06:01:14;-0.80;99.90
39067;DHT22;24821;51.988;6.020;2023-02-08T06:03:40;-0.90;99.90
39067;DHT22;24821;51.988;6.020;2023-02-08T06:06:07;-0.90;99.90
39067;DHT22;24821;51.988;6.020;2023-02-08T06:08:35;-0.90;99.90
39067;DHT22;24821;51.988;6.020;2023-02-08T06:11:00;-0.90;99.90
39067;DHT22;24821;51.988;6.020;2023-02-08T06:13:26;-0.90;99.90
39067;DHT22;24821;51.988;6.020;2023-02-08T06:15:53;-0.90;99.90
39067;DHT22;24821;51.988;6.020;2023-02-08T06:18:19;-0.90;99.90
39067;DHT22;24821;51.988;6.020;2023-02-08T06:20:45;-0.90;99.90
39067;DHT22;24821;51.988;6.020;2023-02-08T06:23:10;-1.00;99.90
39067;DHT22;24821;51.988;6.020;2023-02-08T06:25:36;-0.90;99.90
39067;DHT22;24821;51.988;6.020;2023-02-08T06:28:01;-1.00;99.90
39067;DHT22;24821;51.988;6.020;2023-02-08T06:30:27;-1.00;99.90
39067;DHT22;24821;51.988;6.020;2023-02-08T06:32:53;-1.00;99.90
39067;DHT22;24821;51.988;6.020;2023-02-08T06:35:19;-1.10;99.90
39067;DHT22;24821;51.988;6.020;2023-02-08T06:37:44;-1.10;99.90
39067;DHT22;24821;51.988;6.020;2023-02-08T06:40:10;-1.10;99.90
39067;DHT22;24821;51.988;6.020;2023-02-08T06:42:36;-1.10;99.90
39067;DHT22;24821;51.988;6.020;2023-02-08T06:45:01;-1.10;99.90
39067;DHT22;24821;51.988;6.020;2023-02-08T06:47:27;-1.10;99.90
39067;DHT22;24821;51.988;6.020;2023-02-08T06:49:53;-1.10;99.90
39067;DHT22;24821;51.988;6.020;2023-02-08T06:52:19;-1.10;99.90
39067;DHT22;24821;51.988;6.020;2023-02-08T06:54:45;-1.10;99.90
39067;DHT22;24821;51.988;6.020;2023-02-08T06:59:49;-1.10;99.90
39067;DHT22;24821;51.988;6.020;2023-02-08T07:02:17;-1.20;99.90
39067;DHT22;24821;51.988;6.020;2023-02-08T07:04:43;-1.10;99.90
39067;DHT22;24821;51.988;6.020;2023-02-08T07:07:11;-1.00;99.90
39067;DHT22;24821;51.988;6.020;2023-02-08T07:09:37;-1.00;99.90
39067;DHT22;24821;51.988;6.020;2023-02-08T07:12:03;-1.10;99.90
39067;DHT22;24821;51.988;6.020;2023-02-08T07:14:40;-1.10;99.90
39067;DHT22;24821;51.988;6.020;2023-02-08T07:17:06;-1.00;99.90
39067;DHT22;24821;51.988;6.020;2023-02-08T07:19:32;-1.00;99.90
39067;DHT22;24821;51.988;6.020;2023-02-08T07:21:58;-1.00;99.90
39067;DHT22;24821;51.988;6.020;2023-02-08T07:24:29;-0.90;99.90
39067;DHT22;24821;51.988;6.020;2023-02-08T07:26:55;-0.90;99.90
39067;DHT22;24821;51.988;6.020;2023-02-08T07:29:20;-0.90;99.90
39067;DHT22;24821;51.988;6.020;2023-02-08T07:31:46;-0.90;99.90
39067;DHT22;24821;51.988;6.020;2023-02-08T07:34:11;-0.90;99.90
39067;DHT22;24821;51.988;6.020;2023-02-08T07:36:37;-0.80;99.90
39067;DHT22;24821;51.988;6.020;2023-02-08T07:39:02;-0.80;99.90
39067;DHT22;24821;51.988;6.020;2023-02-08T07:41:28;-0.80;99.90
39067;DHT22;24821;51.988;6.020;2023-02-08T07:43:54;-0.70;99.90
39067;DHT22;24821;51.988;6.020;2023-02-08T07:46:20;-0.70;99.90
39067;DHT22;24821;51.988;6.020;2023-02-08T07:48:46;-0.60;99.90
39067;DHT22;24821;51.988;6.020;2023-02-08T07:51:14;-0.50;99.90
39067;DHT22;24821;51.988;6.020;2023-02-08T07:53:39;-0.40;99.90
39067;DHT22;24821;51.988;6.020;2023-02-08T07:56:05;-0.30;99.90
39067;DHT22;24821;51.988;6.020;2023-02-08T07:58:31;-0.20;99.90
39067;DHT22;24821;51.988;6.020;2023-02-08T08:00:58;-0.10;99.90
39067;DHT22;24821;51.988;6.020;2023-02-08T08:03:23;0.00;99.90
39067;DHT22;24821;51.988;6.020;2023-02-08T08:05:49;0.10;99.90
39067;DHT22;24821;51.988;6.020;2023-02-08T08:08:15;0.10;99.90
39067;DHT22;24821;51.988;6.020;2023-02-08T08:10:41;0.10;99.90
39067;DHT22;24821;51.988;6.020;2023-02-08T08:13:07;0.10;99.90
39067;DHT22;24821;51.988;6.020;2023-02-08T08:15:32;0.10;99.90
39067;DHT22;24821;51.988;6.020;2023-02-08T08:17:58;0.10;99.90
39067;DHT22;24821;51.988;6.020;2023-02-08T08:20:24;0.10;99.90
39067;DHT22;24821;51.988;6.020;2023-02-08T08:22:50;0.10;99.90
39067;DHT22;24821;51.988;6.020;2023-02-08T08:25:15;0.10;99.90
39067;DHT22;24821;51.988;6.020;2023-02-08T08:27:41;0.10;99.90
39067;DHT22;24821;51.988;6.020;2023-02-08T08:30:09;0.20;99.90
39067;DHT22;24821;51.988;6.020;2023-02-08T08:32:36;0.20;99.90
39067;DHT22;24821;51.988;6.020;2023-02-08T08:35:02;0.20;99.90
39067;DHT22;24821;51.988;6.020;2023-02-08T08:37:27;0.30;99.90
39067;DHT22;24821;51.988;6.020;2023-02-08T08:39:53;0.30;99.90
39067;DHT22;24821;51.988;6.020;2023-02-08T08:42:18;0.30;99.90
39067;DHT22;24821;51.988;6.020;2023-02-08T08:44:45;0.40;99.90
39067;DHT22;24821;51.988;6.020;2023-02-08T08:47:11;0.40;99.90
39067;DHT22;24821;51.988;6.020;2023-02-08T08:49:36;0.50;99.90
39067;DHT22;24821;51.988;6.020;2023-02-08T08:52:02;0.50;99.90
39067;DHT22;24821;51.988;6.020;2023-02-08T08:54:28;0.50;99.90
39067;DHT22;24821;51.988;6.020;2023-02-08T08:56:53;0.50;99.90
39067;DHT22;24821;51.988;6.020;2023-02-08T08:59:19;0.60;99.90
39067;DHT22;24821;51.988;6.020;2023-02-08T09:01:44;0.70;99.90
39067;DHT22;24821;51.988;6.020;2023-02-08T09:04:10;0.70;99.90
39067;DHT22;24821;51.988;6.020;2023-02-08T09:06:36;0.80;99.90
39067;DHT22;24821;51.988;6.020;2023-02-08T09:09:02;0.80;99.90
39067;DHT22;24821;51.988;6.020;2023-02-08T09:11:28;0.90;99.90
39067;DHT22;24821;51.988;6.020;2023-02-08T09:13:53;1.00;99.90
39067;DHT22;24821;51.988;6.020;2023-02-08T09:16:22;1.00;99.90
39067;DHT22;24821;51.988;6.020;2023-02-08T09:18:49;1.10;99.90
39067;DHT22;24821;51.988;6.020;2023-02-08T09:21:17;1.10;99.90
39067;DHT22;24821;51.988;6.020;2023-02-08T09:23:43;1.10;99.90
39067;DHT22;24821;51.988;6.020;2023-02-08T09:26:11;1.20;99.90
39067;DHT22;24821;51.988;6.020;2023-02-08T09:28:37;1.30;99.90
39067;DHT22;24821;51.988;6.020;2023-02-08T09:31:07;1.30;99.90
39067;DHT22;24821;51.988;6.020;2023-02-08T09:33:32;1.40;99.90
39067;DHT22;24821;51.988;6.020;2023-02-08T09:35:58;1.50;99.90
39067;DHT22;24821;51.988;6.020;2023-02-08T09:38:23;1.50;99.90
39067;DHT22;24821;51.988;6.020;2023-02-08T09:46:31;1.70;99.90
39067;DHT22;24821;51.988;6.020;2023-02-08T09:49:01;1.80;99.90
39067;DHT22;24821;51.988;6.020;2023-02-08T09:51:36;1.90;99.90
39067;DHT22;24821;51.988;6.020;2023-02-08T09:56:39;2.10;99.90
39067;DHT22;24821;51.988;6.020;2023-02-08T09:59:12;2.10;99.90
39067;DHT22;24821;51.988;6.020;2023-02-08T10:01:39;2.20;99.90
39067;DHT22;24821;51.988;6.020;2023-02-08T10:04:11;2.40;99.90
39067;DHT22;24821;51.988;6.020;2023-02-08T10:06:37;2.50;99.90
39067;DHT22;24821;51.988;6.020;2023-02-08T10:09:05;2.50;99.90
39067;DHT22;24821;51.988;6.020;2023-02-08T10:11:51;2.60;99.90
39067;DHT22;24821;51.988;6.020;2023-02-08T10:19:59;2.80;99.90
39067;DHT22;24821;51.988;6.020;2023-02-08T10:26:00;3.00;99.90
39067;DHT22;24821;51.988;6.020;2023-02-08T10:28:59;3.10;99.90
39067;DHT22;24821;51.988;6.020;2023-02-08T10:34:45;3.30;99.90
39067;DHT22;24821;51.988;6.020;2023-02-08T10:37:35;3.30;99.90
39067;DHT22;24821;51.988;6.020;2023-02-08T10:43:31;3.50;99.60
39067;DHT22;24821;51.988;6.020;2023-02-08T10:51:24;3.80;99.60
39067;DHT22;24821;51.988;6.020;2023-02-08T10:53:51;3.80;99.00
39067;DHT22;24821;51.988;6.020;2023-02-08T10:58:56;4.00;98.90
39067;DHT22;24821;51.988;6.020;2023-02-08T11:01:23;4.00;98.70
39067;DHT22;24821;51.988;6.020;2023-02-08T11:04:10;4.10;97.90
39067;DHT22;24821;51.988;6.020;2023-02-08T11:06:37;4.20;98.10
39067;DHT22;24821;51.988;6.020;2023-02-08T11:09:03;4.20;98.40
39067;DHT22;24821;51.988;6.020;2023-02-08T11:11:38;4.20;98.30
39067;DHT22;24821;51.988;6.020;2023-02-08T11:14:14;4.30;97.90
39067;DHT22;24821;51.988;6.020;2023-02-08T11:16:41;4.40;97.80
39067;DHT22;24821;51.988;6.020;2023-02-08T11:19:37;4.40;97.70
39067;DHT22;24821;51.988;6.020;2023-02-08T11:22:14;4.40;97.50
39067;DHT22;24821;51.988;6.020;2023-02-08T11:24:40;4.50;97.60
39067;DHT22;24821;51.988;6.020;2023-02-08T11:27:31;4.50;97.50
39067;DHT22;24821;51.988;6.020;2023-02-08T11:30:16;4.60;97.30
39067;DHT22;24821;51.988;6.020;2023-02-08T11:32:48;4.70;96.20
39067;DHT22;24821;51.988;6.020;2023-02-08T11:37:55;4.80;96.60
39067;DHT22;24821;51.988;6.020;2023-02-08T11:40:24;4.80;96.50
39067;DHT22;24821;51.988;6.020;2023-02-08T11:42:52;4.90;96.20
39067;DHT22;24821;51.988;6.020;2023-02-08T11:45:33;4.90;95.40
39067;DHT22;24821;51.988;6.020;2023-02-08T11:48:00;5.00;95.30
39067;DHT22;24821;51.988;6.020;2023-02-08T11:50:35;5.10;94.70
39067;DHT22;24821;51.988;6.020;2023-02-08T11:56:00;5.20;95.10
39067;DHT22;24821;51.988;6.020;2023-02-08T11:58:27;5.30;94.70
39067;DHT22;24821;51.988;6.020;2023-02-08T12:01:05;5.40;94.80
39067;DHT22;24821;51.988;6.020;2023-02-08T12:03:36;5.40;94.50
39067;DHT22;24821;51.988;6.020;2023-02-08T12:11:25;5.60;93.40
39067;DHT22;24821;51.988;6.020;2023-02-08T12:16:57;5.60;90.90
39067;DHT22;24821;51.988;6.020;2023-02-08T12:19:36;5.60;90.30
39067;DHT22;24821;51.988;6.020;2023-02-08T12:22:10;5.70;90.80
39067;DHT22;24821;51.988;6.020;2023-02-08T12:24:48;5.70;90.20
39067;DHT22;24821;51.988;6.020;2023-02-08T12:27:44;5.80;88.10
39067;DHT22;24821;51.988;6.020;2023-02-08T12:38:27;6.10;87.80
39067;DHT22;24821;51.988;6.020;2023-02-08T12:41:55;6.10;88.20
39067;DHT22;24821;51.988;6.020;2023-02-08T12:47:32;6.20;85.80
39067;DHT22;24821;51.988;6.020;2023-02-08T12:52:59;6.30;84.10
39067;DHT22;24821;51.988;6.020;2023-02-08T12:55:29;6.30;84.40
39067;DHT22;24821;51.988;6.020;2023-02-08T12:58:05;6.30;83.50
39067;DHT22;24821;51.988;6.020;2023-02-08T13:00:34;6.40;83.10
39067;DHT22;24821;51.988;6.020;2023-02-08T13:05:39;6.50;84.40
39067;DHT22;24821;51.988;6.020;2023-02-08T13:09:00;6.50;84.60
39067;DHT22;24821;51.988;6.020;2023-02-08T13:11:05;6.50;83.10
39067;DHT22;24821;51.988;6.020;2023-02-08T13:13:37;6.50;84.10
39067;DHT22;24821;51.988;6.020;2023-02-08T13:16:09;6.50;84.00
39067;DHT22;24821;51.988;6.020;2023-02-08T13:18:43;6.50;85.00
39067;DHT22;24821;51.988;6.020;2023-02-08T13:21:14;6.60;84.70
39067;DHT22;24821;51.988;6.020;2023-02-08T13:23:43;6.60;82.90
39067;DHT22;24821;51.988;6.020;2023-02-08T13:26:28;6.60;81.80
39067;DHT22;24821;51.988;6.020;2023-02-08T13:28:57;6.70;81.20
39067;DHT22;24821;51.988;6.020;2023-02-08T13:31:37;6.60;81.10
39067;DHT22;24821;51.988;6.020;2023-02-08T13:36:38;6.70;81.40
39067;DHT22;24821;51.988;6.020;2023-02-08T13:39:07;6.70;80.90
39067;DHT22;24821;51.988;6.020;2023-02-08T13:41:34;6.70;81.60
39067;DHT22;24821;51.988;6.020;2023-02-08T13:44:16;6.70;81.00
39067;DHT22;24821;51.988;6.020;2023-02-08T13:46:49;6.80;80.90
39067;DHT22;24821;51.988;6.020;2023-02-08T13:49:40;6.80;80.80
39067;DHT22;24821;51.988;6.020;2023-02-08T13:52:07;6.70;81.10
39067;DHT22;24821;51.988;6.020;2023-02-08T13:54:33;6.70;81.00
39067;DHT22;24821;51.988;6.020;2023-02-08T13:56:59;6.70;80.50
39067;DHT22;24821;51.988;6.020;2023-02-08T14:04:41;6.70;77.30
39067;DHT22;24821;51.988;6.020;2023-02-08T14:12:34;6.80;77.30
39067;DHT22;24821;51.988;6.020;2023-02-08T14:17:42;6.70;75.50
39067;DHT22;24821;51.988;6.020;2023-02-08T14:20:54;6.70;76.80
39067;DHT22;24821;51.988;6.020;2023-02-08T14:23:23;6.70;77.80
39067;DHT22;24821;51.988;6.020;2023-02-08T14:25:51;6.70;77.00
39067;DHT22;24821;51.988;6.020;2023-02-08T14:28:28;6.60;77.10
39067;DHT22;24821;51.988;6.020;2023-02-08T14:30:56;6.70;77.30
39067;DHT22;24821;51.988;6.020;2023-02-08T14:33:26;6.60;77.00
39067;DHT22;24821;51.988;6.020;2023-02-08T14:35:58;6.60;77.30
39067;DHT22;24821;51.988;6.020;2023-02-08T14:38:51;6.60;77.20
39067;DHT22;24821;51.988;6.020;2023-02-08T14:41:53;6.60;77.40
39067;DHT22;24821;51.988;6.020;2023-02-08T14:49:41;6.50;77.70
39067;DHT22;24821;51.988;6.020;2023-02-08T14:52:20;6.60;77.60
39067;DHT22;24821;51.988;6.020;2023-02-08T14:54:55;6.50;77.80
39067;DHT22;24821;51.988;6.020;2023-02-08T14:57:24;6.50;78.70
39067;DHT22;24821;51.988;6.020;2023-02-08T14:59:51;6.50;78.90
39067;DHT22;24821;51.988;6.020;2023-02-08T15:02:22;6.40;78.50
39067;DHT22;24821;51.988;6.020;2023-02-08T15:04:56;6.40;78.40
39067;DHT22;24821;51.988;6.020;2023-02-08T15:07:38;6.40;77.90
39067;DHT22;24821;51.988;6.020;2023-02-08T15:10:12;6.40;78.20
39067;DHT22;24821;51.988;6.020;2023-02-08T15:12:39;6.40;78.40
39067;DHT22;24821;51.988;6.020;2023-02-08T15:15:06;6.30;78.30
39067;DHT22;24821;51.988;6.020;2023-02-08T15:17:46;6.30;77.70
39067;DHT22;24821;51.988;6.020;2023-02-08T15:20:33;6.30;77.30
39067;DHT22;24821;51.988;6.020;2023-02-08T15:23:20;6.40;78.20
39067;DHT22;24821;51.988;6.020;2023-02-08T15:28:28;6.20;79.40
39067;DHT22;24821;51.988;6.020;2023-02-08T15:31:06;6.10;80.00
39067;DHT22;24821;51.988;6.020;2023-02-08T15:33:37;6.20;80.60
39067;DHT22;24821;51.988;6.020;2023-02-08T15:36:29;6.10;80.20
39067;DHT22;24821;51.988;6.020;2023-02-08T15:38:58;6.10;80.70
39067;DHT22;24821;51.988;6.020;2023-02-08T15:41:29;6.00;81.10
39067;DHT22;24821;51.988;6.020;2023-02-08T15:46:40;5.90;82.10
39067;DHT22;24821;51.988;6.020;2023-02-08T15:49:12;5.80;82.40
39067;DHT22;24821;51.988;6.020;2023-02-08T15:51:40;5.70;82.60
39067;DHT22;24821;51.988;6.020;2023-02-08T15:54:06;5.70;82.80
39067;DHT22;24821;51.988;6.020;2023-02-08T15:56:34;5.60;82.60
39067;DHT22;24821;51.988;6.020;2023-02-08T15:59:02;5.50;83.10
39067;DHT22;24821;51.988;6.020;2023-02-08T16:01:29;5.50;83.40
39067;DHT22;24821;51.988;6.020;2023-02-08T16:04:02;5.40;83.80
39067;DHT22;24821;51.988;6.020;2023-02-08T16:06:39;5.30;83.90
39067;DHT22;24821;51.988;6.020;2023-02-08T16:09:17;5.20;84.10
39067;DHT22;24821;51.988;6.020;2023-02-08T16:11:46;5.20;84.40
39067;DHT22;24821;51.988;6.020;2023-02-08T16:14:13;5.20;84.70
39067;DHT22;24821;51.988;6.020;2023-02-08T16:16:43;5.10;84.80
39067;DHT22;24821;51.988;6.020;2023-02-08T16:19:24;5.00;84.90
39067;DHT22;24821;51.988;6.020;2023-02-08T16:21:51;5.00;84.90
39067;DHT22;24821;51.988;6.020;2023-02-08T16:24:18;4.90;85.10
39067;DHT22;24821;51.988;6.020;2023-02-08T16:27:02;4.90;85.20
39067;DHT22;24821;51.988;6.020;2023-02-08T16:29:29;4.80;85.10
39067;DHT22;24821;51.988;6.020;2023-02-08T16:32:05;4.70;85.30
39067;DHT22;24821;51.988;6.020;2023-02-08T16:34:36;4.70;85.50
39067;DHT22;24821;51.988;6.020;2023-02-08T16:37:04;4.60;85.60
39067;DHT22;24821;51.988;6.020;2023-02-08T16:39:37;4.50;86.00
39067;DHT22;24821;51.988;6.020;2023-02-08T16:42:20;4.50;86.10
39067;DHT22;24821;51.988;6.020;2023-02-08T16:45:02;4.40;86.20
39067;DHT22;24821;51.988;6.020;2023-02-08T16:47:54;4.40;86.60
39067;DHT22;24821;51.988;6.020;2023-02-08T16:50:23;4.30;86.90
39067;DHT22;24821;51.988;6.020;2023-02-08T16:52:53;4.20;87.30
39067;DHT22;24821;51.988;6.020;2023-02-08T16:55:22;4.20;87.50
39067;DHT22;24821;51.988;6.020;2023-02-08T16:57:54;4.10;87.50
39067;DHT22;24821;51.988;6.020;2023-02-08T17:00:28;4.10;87.60
39067;DHT22;24821;51.988;6.020;2023-02-08T17:02:55;4.00;87.60
39067;DHT22;24821;51.988;6.020;2023-02-08T17:05:23;4.00;87.80
39067;DHT22;24821;51.988;6.020;2023-02-08T17:07:50;3.90;87.90
39067;DHT22;24821;51.988;6.020;2023-02-08T17:10:30;3.90;88.00
39067;DHT22;24821;51.988;6.020;2023-02-08T17:12:58;3.90;88.20
39067;DHT22;24821;51.988;6.020;2023-02-08T17:15:24;3.80;88.50
39067;DHT22;24821;51.988;6.020;2023-02-08T17:17:53;3.70;88.60
39067;DHT22;24821;51.988;6.020;2023-02-08T17:20:25;3.70;88.90
39067;DHT22;24821;51.988;6.020;2023-02-08T17:22:53;3.70;89.20
39067;DHT22;24821;51.988;6.020;2023-02-08T17:25:19;3.60;89.40
39067;DHT22;24821;51.988;6.020;2023-02-08T17:27:47;3.60;89.50
39067;DHT22;24821;51.988;6.020;2023-02-08T17:32:53;3.50;90.10
39067;DHT22;24821;51.988;6.020;2023-02-08T17:35:21;3.40;90.40
39067;DHT22;24821;51.988;6.020;2023-02-08T17:37:49;3.40;90.60
39067;DHT22;24821;51.988;6.020;2023-02-08T17:40:18;3.40;90.70
39067;DHT22;24821;51.988;6.020;2023-02-08T17:42:44;3.30;90.80
39067;DHT22;24821;51.988;6.020;2023-02-08T17:45:10;3.30;90.90
39067;DHT22;24821;51.988;6.020;2023-02-08T17:47:36;3.20;91.00
39067;DHT22;24821;51.988;6.020;2023-02-08T17:50:11;3.20;91.10
39067;DHT22;24821;51.988;6.020;2023-02-08T17:52:38;3.20;91.10
39067;DHT22;24821;51.988;6.020;2023-02-08T17:55:05;3.10;91.20
39067;DHT22;24821;51.988;6.020;2023-02-08T17:57:36;3.10;91.30
39067;DHT22;24821;51.988;6.020;2023-02-08T18:00:24;3.10;91.30
39067;DHT22;24821;51.988;6.020;2023-02-08T18:02:52;3.10;91.30
39067;DHT22;24821;51.988;6.020;2023-02-08T18:05:23;3.00;91.50
39067;DHT22;24821;51.988;6.020;2023-02-08T18:07:50;3.00;91.60
39067;DHT22;24821;51.988;6.020;2023-02-08T18:10:15;3.00;91.90
39067;DHT22;24821;51.988;6.020;2023-02-08T18:12:41;2.90;91.90